メインページ
METAR-TAF:

METAR-TAF

空港 :

ベレン, パラー州, ブラジル

緯度: 01-23S, 経度: 048-29W, 海抜: 16m

現時点の気象観測

当レポートは1時間10分前の06:00(UTC)に作成
南/南東の風 2kt
気温 24°C
湿度 94%
気圧 1011 hPa
視程10km以上
1,500メートル以下は雲なし、積乱雲なし

METAR: SBBE 130600Z 16002KT CAVOK 24/23 Q1011

時間: 04:10 (07:10 UTC)

予報

当レポートは9時間10分前の22:00(UTC)に作成
予報は13日の 00時(UTC)から 13日の 24時(UTC)まで有効
の風 5kt
視程10km以上
1,500メートル以下は雲なし、積乱雲なし
13日の 01時(UTC)から 13日の 03時(UTC)まで徐々に
東/北東の風 5kt
13日の 05時(UTC)から 13日の 07時(UTC)まで徐々に
東/南東の風 2kt
13日の 09時(UTC)から 13日の 11時(UTC)まで徐々に
南東の風 5kt
視程10km以上
高度1500ftの雲は散在している
13日の 13時(UTC)から 13日の 15時(UTC)まで徐々に
の風 10kt
視程: 2000m
高度700ftの雲は散在している
高度2500ftの千切れ雲あり
高度3000ftの雲はほとんどない, 積乱雲.
激しい雷雨, 雨
13日の 17時(UTC)から 13日の 19時(UTC)まで徐々に
視程10km以上
高度2500ftの雲は散在している
13日の 21時(UTC)から 13日の 23時(UTC)まで徐々に
の風 5kt
視程10km以上
1,500メートル以下は雲なし、積乱雲なし

TAF: SBBE 122200Z 1300/1324 09005KT CAVOK TN24/1307Z TX31/1315Z BECMG 1301/1303 06005KT BECMG 1305/1307 12002KT BECMG 1309/1311 13005KT 9999 SCT015 BECMG 1313/1315 35010KT 2000 TSRA SCT007 BKN025 FEW030CB BECMG 1317/1319 0 4007KT 9999 SCT025 BECMG 1321/1323 09005KT CAVOK RMK PDY

4,000以上の空港の気象観測と天気予報(METAR報とTAF報)

利用可能な観測所は地図上に黄色い丸と赤い丸で示す。

丸の上にカーソルを重ねると観測所名を参照できる。

次にクリックすると気象観測と天気予報を参照できる。

マップの切り替え:黒色「×」印の緑ボタンをクリックして拡大、「-」印の緑ボタンをクリックして縮小、緑色の三角印をクリックして隣りの地図に切り替え


METAR-TAF: